Terminal Aerodrome Forecast
Issued by NWS

Home | Current Version | Previous Version | Text Only | Print | Product List | Glossary Off
Versions: 1 2 3 4 5 6 7 8 9 10 11 12 13 14 15 16 17 18 19 20 21 22 23 24 25 26 27 28 29 30 31 32 33 34 35 36 37 38 39 40 41 42 43 44

000
FTUS43 KPAH 280401 AAA
TAFOWB
TAF AMD
KOWB 280401Z 2804/2824 VRB03KT P6SM VCSH SCT040 BKN100
     FM280900 VRB02KT 4SM BR BKN020 OVC040
      TEMPO 2812/2816 3SM TSRA BR OVC010CB
     FM281700 24005KT P6SM SCT040 BKN100=

USA.gov is the U.S. government's official web portal to all federal, state and local government web resources and services.